Terminal Aerodrome Forecast
Issued by NWS

Current Version | Previous Version | Graphics & Text | Print | Product List | Glossary On
Versions: 1 2 3 4 5 6 7 8 9 10 11 12 13 14 15 16 17 18 19 20 21 22 23 24 25 26 27 28 29 30 31
000
FTUS41 KILN 192300
TAFLUK
TAF
KLUK 192334Z 2000/2024 22008KT P6SM VCTS BKN045CB
      TEMPO 2003/2006 3SM -TSRA BR OVC040CB
     FM200600 VRB02KT 4SM BR SCT045
     FM200800 VRB02KT 1/2SM FG VV002
     FM201200 22003KT 4SM BR SCT010
     FM201400 25005KT P6SM SCT045
     FM201700 27008KT P6SM SCT050=

USA.gov is the U.S. government's official web portal to all federal, state and local government web resources and services.